MMAA METAR and TAF | Updated Today

MMAA METAR

General Juan N Alvarez International Airport

Observation time: 63 min. ago

MMAA 200742Z 10005KT 5SM SKC 24/22 A2994 RMK HZY

Need help? Read our tutorial on how to read METARs or read the parsed version below.

General Juan N Alvarez International Airport (MMAA) METAR

  • Weather conditions on Mon, 20 Mar 2023 07:42:00 +0000 (63 min. ago):
  • Present conditions: Dry
  • Clouds: No significant changes expected
  • Visibility: 8047 meters
  • Wind: 100 degrees at 5 knots
  • Temperature: 24 celsius
  • Dew point: 22 celsius
  • Pressure: 29.94 inHg
  • Remarks: HZY


Useful to know...

MMAA TAF

General Juan N Alvarez International Airport

TAF MMAA 200437Z 2006/2106 00000KT 5SM SKC TX31/2019Z TN23/2012Z FM201800 22012KT P6SM SKC FM210300 32005KT P6SM SCT100
Observation time: 4:08 hr. ago
Need help? Read our tutorial on how to read TAFs or read the parsed version below.

Parsed version of TAF for General Juan N Alvarez International Airport (MMAA)

  • From 20 March at 06:00 UTC, to day 21 of the month at 06:00 UTC
  • Clouds: No significant changes expected
  • Visibility: 8047 meters
  • From day 20 of the month at 18:00 UTC
  • Clouds: No significant changes expected
  • Wind: 220 degrees at 12
  • From day 21 of the month at 03:00 UTC
  • Clouds: Scattered at 3048 meters
  • Wind: 320 degrees at 5

Airports near MMAA

No airports found within 100nm radius.